Time;durP1;ratioP1;P1;durP2;ratioP2;P2;SDS_P1;SDS_P2;PMS_P1;PMS_P2;Temp;Humidity;BMP_temperature;BMP_pressure;BME280_temperature;BME280_humidity;BME280_pressure;Samples;Min_cycle;Max_cycle;Signal;HPM_P1;HPM_P2
2021/03/30 00:01:07;;;;;;;7.30;3.42;;;4.90;74.20;;;;;;4971395;28;20054;-73
2021/03/30 00:03:35;;;;;;;5.95;3.92;;;5.00;73.30;;;;;;4964980;28;20043;-73
2021/03/30 00:06:04;;;;;;;5.78;3.65;;;5.00;74.00;;;;;;4970124;28;20061;-73
2021/03/30 00:08:31;;;;;;;6.90;5.63;;;4.70;74.60;;;;;;4971795;28;20527;-73
2021/03/30 00:10:59;;;;;;;9.30;5.40;;;4.20;77.40;;;;;;4970851;28;20054;-73
2021/03/30 00:13:26;;;;;;;6.53;3.67;;;4.00;78.80;;;;;;4969913;28;20396;-73
2021/03/30 00:15:54;;;;;;;5.70;3.92;;;4.00;78.90;;;;;;4972660;28;20061;-73
2021/03/30 00:18:21;;;;;;;7.45;4.18;;;4.20;78.30;;;;;;4971273;28;20391;-73
2021/03/30 00:20:50;;;;;;;5.25;4.10;;;4.30;78.00;;;;;;4963535;28;20476;-73
2021/03/30 00:23:17;;;;;;;12.73;4.35;;;4.40;77.00;;;;;;4970117;28;20043;-73
2021/03/30 00:25:45;;;;;;;4.97;4.28;;;4.50;76.50;;;;;;4970573;28;20279;-73
2021/03/30 00:28:13;;;;;;;4.20;3.83;;;4.50;76.20;;;;;;4969444;28;20042;-74
2021/03/30 00:30:40;;;;;;;8.43;3.63;;;4.50;76.30;;;;;;4954267;28;20055;-74
2021/03/30 00:33:08;;;;;;;5.65;4.07;;;4.50;76.10;;;;;;4971459;28;20049;-74
2021/03/30 00:35:35;;;;;;;11.27;4.07;;;4.40;76.10;;;;;;4971482;28;20077;-74
2021/03/30 00:38:03;;;;;;;11.18;4.95;;;4.40;76.00;;;;;;4971553;28;20054;-77
2021/03/30 00:40:31;;;;;;;10.50;3.38;;;4.40;76.10;;;;;;4970760;28;20047;-74
2021/03/30 00:42:59;;;;;;;4.28;3.70;;;4.30;76.40;;;;;;4971813;28;20055;-78
2021/03/30 00:45:26;;;;;;;5.78;4.72;;;4.20;77.10;;;;;;4971543;28;20046;-77
2021/03/30 00:47:59;;;;;;;5.57;3.92;;;4.20;77.80;;;;;;4970959;28;20058;-78
2021/03/30 00:50:32;;;;;;;5.75;4.35;;;4.30;77.00;;;;;;4969234;28;20066;-77
2021/03/30 00:53:10;;;;;;;5.53;4.63;;;4.40;76.80;;;;;;4969880;28;20043;-74
2021/03/30 00:55:58;;;;;;;8.40;5.20;;;4.40;76.30;;;;;;4969184;28;20070;-74
2021/03/30 00:58:25;;;;;;;8.45;4.55;;;4.50;75.80;;;;;;4971450;28;20062;-74
2021/03/30 01:00:53;;;;;;;4.85;4.35;;;4.50;76.90;;;;;;4970821;28;20063;-74
2021/03/30 01:03:20;;;;;;;4.63;4.25;;;4.00;77.20;;;;;;4951419;29;20063;-74
2021/03/30 01:05:48;;;;;;;5.45;4.07;;;3.60;80.30;;;;;;4967079;28;20043;-74
2021/03/30 01:08:46;;;;;;;11.70;4.90;;;3.50;81.90;;;;;;4971188;28;20055;-74
2021/03/30 01:11:19;;;;;;;5.88;4.40;;;3.60;81.50;;;;;;4971240;28;20055;-73
2021/03/30 01:14:03;;;;;;;4.13;3.78;;;3.70;81.20;;;;;;4971283;28;20053;-74
2021/03/30 01:16:45;;;;;;;4.30;3.90;;;3.70;80.40;;;;;;4971074;28;20047;-74
2021/03/30 01:19:33;;;;;;;5.63;4.15;;;3.80;80.70;;;;;;4962897;28;20405;-74
2021/03/30 01:22:38;;;;;;;4.70;3.58;;;3.90;79.90;;;;;;4966804;28;20051;-74
2021/03/30 01:25:06;;;;;;;4.60;4.22;;;3.90;79.70;;;;;;4970459;28;20077;-74
2021/03/30 01:27:50;;;;;;;5.13;3.53;;;3.90;79.60;;;;;;4971321;28;20061;-73
2021/03/30 01:30:20;;;;;;;9.18;3.97;;;3.90;79.60;;;;;;4970926;28;20051;-73
2021/03/30 01:33:10;;;;;;;7.55;4.30;;;4.00;79.50;;;;;;4974435;28;20478;-74
2021/03/30 01:35:40;;;;;;;4.50;4.10;;;4.00;79.30;;;;;;4974409;28;20519;-73
2021/03/30 01:38:12;;;;;;;8.43;4.32;;;4.00;78.80;;;;;;4974370;28;20047;-73
2021/03/30 01:40:45;;;;;;;4.72;4.32;;;4.00;78.30;;;;;;4971842;28;20042;-74
2021/03/30 01:43:14;;;;;;;5.05;4.57;;;3.90;78.60;;;;;;4973584;28;20058;-74
2021/03/30 01:45:42;;;;;;;7.63;3.70;;;3.90;79.10;;;;;;4966863;28;20488;-73
2021/03/30 01:48:11;;;;;;;4.72;4.32;;;3.80;79.60;;;;;;4973580;28;20047;-74
2021/03/30 01:50:41;;;;;;;6.03;3.75;;;3.80;79.60;;;;;;4973904;28;20063;-74
2021/03/30 01:53:11;;;;;;;7.38;4.38;;;3.80;79.40;;;;;;4973399;28;20038;-73
2021/03/30 01:55:39;;;;;;;8.80;4.90;;;3.90;79.00;;;;;;4972631;28;20055;-73
2021/03/30 01:58:08;;;;;;;4.70;4.30;;;4.00;78.70;;;;;;4973960;28;20082;-74
2021/03/30 02:00:38;;;;;;;9.18;3.85;;;3.90;78.60;;;;;;4973086;28;20047;-74
2021/03/30 02:03:07;;;;;;;6.05;3.92;;;3.90;78.90;;;;;;4974777;28;20059;-74
2021/03/30 02:05:37;;;;;;;4.40;3.95;;;3.90;79.10;;;;;;4973775;28;20070;-74
2021/03/30 02:08:08;;;;;;;4.20;3.42;;;3.80;79.00;;;;;;4973688;28;20050;-74
2021/03/30 02:13:08;;;;;;;3.72;3.10;;;3.60;78.90;;;;;;4967269;28;20147;-74
2021/03/30 02:15:35;;;;;;;5.65;3.47;;;3.60;79.00;;;;;;4974214;28;20062;-74
2021/03/30 02:18:12;;;;;;;4.00;3.60;;;3.60;79.10;;;;;;4970314;28;20051;-73
2021/03/30 02:21:02;;;;;;;3.35;3.05;;;3.60;79.30;;;;;;4950162;28;20496;-74
2021/03/30 02:23:33;;;;;;;2.88;2.63;;;3.50;79.30;;;;;;4969804;28;20050;-74
2021/03/30 02:26:03;;;;;;;6.93;4.72;;;3.50;80.20;;;;;;4972588;28;20047;-74
2021/03/30 02:28:51;;;;;;;5.15;4.65;;;3.50;80.60;;;;;;4973310;28;20051;-74
2021/03/30 02:31:24;;;;;;;3.67;3.08;;;3.50;81.20;;;;;;4973722;28;20055;-74
2021/03/30 02:33:55;;;;;;;7.15;4.22;;;3.30;81.40;;;;;;4973267;28;20054;-77
2021/03/30 02:36:25;;;;;;;4.35;3.30;;;3.30;81.30;;;;;;4972254;28;20050;-77
2021/03/30 02:38:57;;;;;;;7.40;3.20;;;3.30;81.50;;;;;;4973485;28;20840;-77
2021/03/30 02:41:29;;;;;;;3.63;3.33;;;3.30;81.30;;;;;;4973130;28;20043;-77
2021/03/30 02:43:58;;;;;;;5.75;3.58;;;3.30;82.00;;;;;;4971998;28;20078;-77
2021/03/30 02:46:27;;;;;;;7.18;4.07;;;3.30;82.00;;;;;;4973662;28;20057;-77
2021/03/30 02:48:55;;;;;;;4.90;2.72;;;3.20;82.60;;;;;;4972794;28;20050;-77
2021/03/30 02:51:28;;;;;;;5.63;3.50;;;3.30;82.90;;;;;;4971890;28;20062;-77
2021/03/30 02:53:56;;;;;;;4.45;4.07;;;3.30;82.60;;;;;;4972493;28;20078;-77
2021/03/30 02:56:25;;;;;;;6.30;3.60;;;3.40;82.20;;;;;;4972964;28;20050;-77
2021/03/30 02:58:53;;;;;;;4.70;4.30;;;3.50;81.90;;;;;;4972062;28;20058;-77
2021/03/30 03:01:22;;;;;;;5.38;3.92;;;3.50;81.60;;;;;;4965732;28;20046;-77
2021/03/30 03:03:52;;;;;;;6.15;3.53;;;3.60;81.30;;;;;;4973621;28;20050;-77
2021/03/30 03:06:20;;;;;;;6.97;3.80;;;3.60;81.10;;;;;;4971461;28;20045;-77
2021/03/30 03:08:51;;;;;;;3.75;3.33;;;3.60;80.60;;;;;;4972438;28;20043;-78
2021/03/30 03:11:21;;;;;;;4.55;4.15;;;3.50;80.40;;;;;;4972381;28;21543;-77
2021/03/30 03:13:54;;;;;;;4.82;4.43;;;3.30;82.00;;;;;;4973101;28;20042;-74
2021/03/30 03:16:23;;;;;;;7.90;3.50;;;3.10;83.30;;;;;;4972780;28;20070;-73
2021/03/30 03:18:52;;;;;;;3.10;2.78;;;3.00;83.90;;;;;;4966732;28;20043;-74
2021/03/30 03:21:24;;;;;;;6.53;4.80;;;3.00;83.80;;;;;;4970862;28;20039;-73
2021/03/30 03:23:53;;;;;;;6.00;3.00;;;3.10;83.80;;;;;;4971910;28;20042;-74
2021/03/30 03:26:21;;;;;;;5.82;3.42;;;3.10;84.30;;;;;;4971903;28;20389;-74
2021/03/30 03:28:49;;;;;;;5.18;4.43;;;3.00;84.00;;;;;;4972322;28;20047;-74
2021/03/30 03:31:27;;;;;;;3.95;3.33;;;3.10;83.90;;;;;;4972470;28;20058;-73
2021/03/30 03:34:01;;;;;;;6.28;4.20;;;3.20;84.00;;;;;;4972491;28;20054;-74
2021/03/30 03:36:42;;;;;;;5.82;4.05;;;3.10;83.30;;;;;;4972004;28;20069;-73
2021/03/30 03:39:12;;;;;;;5.22;4.78;;;3.00;83.90;;;;;;4971984;28;20051;-74
2021/03/30 03:41:44;;;;;;;4.07;3.67;;;2.80;85.40;;;;;;4970664;28;20479;-74
2021/03/30 03:44:13;;;;;;;3.17;2.97;;;2.70;85.50;;;;;;4971163;28;20154;-73
2021/03/30 03:46:41;;;;;;;5.28;4.85;;;2.70;86.10;;;;;;4965143;28;20043;-73
2021/03/30 03:49:09;;;;;;;4.25;3.00;;;2.80;86.10;;;;;;4971279;28;20043;-74
2021/03/30 03:51:50;;;;;;;4.30;3.83;;;2.90;85.90;;;;;;4967548;28;20055;-74
2021/03/30 03:54:20;;;;;;;4.70;4.03;;;3.10;85.30;;;;;;4970569;28;20050;-73
2021/03/30 03:56:57;;;;;;;5.80;3.92;;;3.10;84.50;;;;;;4968529;28;20043;-74
2021/03/30 03:59:31;;;;;;;4.82;3.97;;;2.90;83.90;;;;;;4971737;28;20051;-74
2021/03/30 04:02:13;;;;;;;3.60;3.28;;;2.70;85.40;;;;;;4971497;28;20046;-74
2021/03/30 04:04:52;;;;;;;;;;;2.40;85.90;;;;;;4964334;28;20038;-73
2021/03/30 04:07:24;;;;;;;8.55;3.92;;;2.40;87.10;;;;;;4972000;28;19945;-74
2021/03/30 04:09:54;;;;;;;8.05;4.50;;;2.50;86.30;;;;;;4971519;28;20404;-77
2021/03/30 04:12:25;;;;;;;6.47;3.92;;;2.50;86.70;;;;;;4971930;28;20046;-77
2021/03/30 04:14:53;;;;;;;5.27;3.20;;;2.50;86.80;;;;;;4970727;28;20054;-77
2021/03/30 04:17:21;;;;;;;4.15;3.13;;;2.50;87.10;;;;;;4970179;28;20282;-77
2021/03/30 04:19:49;;;;;;;4.15;3.13;;;2.60;86.90;;;;;;4969350;28;20043;-74
2021/03/30 04:22:17;;;;;;;11.23;4.43;;;3.00;85.90;;;;;;4970925;28;20051;-74
2021/03/30 04:24:44;;;;;;;6.78;3.33;;;3.30;84.20;;;;;;4970664;28;20043;-73
2021/03/30 04:27:15;;;;;;;4.65;3.80;;;3.30;83.10;;;;;;4971997;28;20054;-74
2021/03/30 04:29:44;;;;;;;6.88;3.42;;;3.20;83.40;;;;;;4970951;28;20055;-73
2021/03/30 04:32:12;;;;;;;4.03;2.90;;;2.90;84.30;;;;;;4970124;28;20051;-73
2021/03/30 04:34:39;;;;;;;6.35;3.25;;;2.70;85.80;;;;;;4971440;28;20049;-73
2021/03/30 04:37:06;;;;;;;4.78;3.70;;;2.70;86.20;;;;;;4971554;28;20051;-73
2021/03/30 04:39:34;;;;;;;4.63;4.22;;;2.60;86.60;;;;;;4971118;28;20050;-73
2021/03/30 04:42:01;;;;;;;4.53;3.95;;;2.50;86.90;;;;;;4968872;28;20061;-73
2021/03/30 04:44:29;;;;;;;5.68;3.47;;;2.50;88.00;;;;;;4968286;28;20051;-73
2021/03/30 04:46:58;;;;;;;4.38;3.90;;;2.50;88.10;;;;;;4971464;28;20066;-73
2021/03/30 04:49:25;;;;;;;3.40;2.95;;;2.40;88.10;;;;;;4970838;28;20505;-73
2021/03/30 04:51:53;;;;;;;4.20;2.75;;;2.30;88.80;;;;;;4971282;28;20436;-73
2021/03/30 04:54:21;;;;;;;8.00;3.75;;;2.20;89.20;;;;;;4969971;28;20042;-73
2021/03/30 04:56:49;;;;;;;3.67;3.38;;;2.20;89.70;;;;;;4970973;28;20061;-73
2021/03/30 04:59:16;;;;;;;10.32;3.50;;;2.20;89.80;;;;;;4971707;28;20046;-73
2021/03/30 05:01:43;;;;;;;5.38;3.88;;;2.30;89.60;;;;;;4970575;28;20515;-72
2021/03/30 05:04:11;;;;;;;17.52;4.88;;;2.40;89.60;;;;;;4968819;28;20062;-73
2021/03/30 05:06:38;;;;;;;9.65;5.18;;;2.40;89.20;;;;;;4973320;28;20062;-73
2021/03/30 05:09:06;;;;;;;6.32;3.40;;;2.50;88.70;;;;;;4973965;28;20051;-73
2021/03/30 05:11:33;;;;;;;4.97;4.50;;;2.60;88.20;;;;;;4957936;28;20113;-73
2021/03/30 05:14:02;;;;;;;4.05;3.70;;;2.70;87.50;;;;;;4974236;28;20821;-73
2021/03/30 05:16:30;;;;;;;4.85;4.15;;;2.80;87.40;;;;;;4974085;28;20058;-73
2021/03/30 05:18:57;;;;;;;4.45;4.05;;;2.80;87.00;;;;;;4969943;28;20047;-73
2021/03/30 05:21:25;;;;;;;3.40;3.00;;;2.80;87.00;;;;;;4974510;28;20477;-72
2021/03/30 05:23:52;;;;;;;4.05;3.22;;;2.80;87.10;;;;;;4974103;28;20426;-72
2021/03/30 05:26:21;;;;;;;3.60;3.25;;;2.80;87.10;;;;;;4973813;28;20046;-72
2021/03/30 05:28:49;;;;;;;6.63;4.20;;;2.90;87.50;;;;;;4974041;28;20057;-73
2021/03/30 05:31:16;;;;;;;6.32;4.53;;;2.90;87.10;;;;;;4967387;28;20054;-73
2021/03/30 05:33:44;;;;;;;4.05;3.75;;;3.10;86.00;;;;;;4974193;28;20042;-73
2021/03/30 05:36:11;;;;;;;3.40;3.10;;;3.50;84.30;;;;;;4973983;28;20054;-73
2021/03/30 05:38:39;;;;;;;7.43;3.42;;;3.80;82.80;;;;;;4973661;28;20058;-73
2021/03/30 05:41:07;;;;;;;3.63;3.33;;;4.00;80.90;;;;;;4971410;28;20468;-73
2021/03/30 05:43:36;;;;;;;3.75;3.38;;;4.30;78.80;;;;;;4974687;28;20055;-73
2021/03/30 05:46:04;;;;;;;3.30;2.78;;;4.60;77.60;;;;;;4973553;28;20428;-73
2021/03/30 05:48:32;;;;;;;5.13;2.40;;;4.90;75.20;;;;;;4973757;28;20049;-73
2021/03/30 05:51:00;;;;;;;3.85;2.78;;;5.10;74.00;;;;;;4973947;28;20070;-73
2021/03/30 05:53:29;;;;;;;3.47;3.17;;;5.30;73.60;;;;;;4973626;28;20408;-74
2021/03/30 05:56:03;;;;;;;4.30;3.28;;;5.30;73.30;;;;;;4971758;28;20423;-74
2021/03/30 05:58:32;;;;;;;2.72;2.53;;;5.50;73.10;;;;;;4972318;28;20051;-74
2021/03/30 06:01:04;;;;;;;3.33;3.10;;;5.60;73.00;;;;;;4973142;28;20043;-73
2021/03/30 06:03:34;;;;;;;8.95;2.50;;;5.80;72.70;;;;;;4973321;28;20047;-74
2021/03/30 06:06:02;;;;;;;10.63;2.90;;;5.90;72.00;;;;;;4973190;28;20050;-74
2021/03/30 06:08:31;;;;;;;4.35;3.78;;;6.00;71.20;;;;;;4969609;28;20055;-74
2021/03/30 06:11:04;;;;;;;2.67;2.47;;;6.20;70.60;;;;;;4971589;28;20073;-74
2021/03/30 06:13:52;;;;;;;5.00;3.33;;;6.40;70.20;;;;;;4972453;28;20039;-74
2021/03/30 06:16:36;;;;;;;2.70;2.50;;;6.60;69.20;;;;;;4973418;28;20813;-74
2021/03/30 06:19:15;;;;;;;3.33;2.78;;;6.90;69.80;;;;;;4971698;28;20088;-74
2021/03/30 06:22:07;;;;;;;4.43;4.03;;;7.20;66.10;;;;;;4973199;28;20523;-74
2021/03/30 06:24:35;;;;;;;;;;;7.80;68.40;;;;;;4967320;28;20054;-74
2021/03/30 06:27:05;;;;;;;5.25;2.53;;;8.00;63.00;;;;;;4973309;28;20367;-74
2021/03/30 06:29:39;;;;;;;3.28;2.97;;;8.90;59.10;;;;;;4973215;28;20376;-74
2021/03/30 06:32:14;;;;;;;4.15;2.30;;;9.50;58.50;;;;;;4971513;28;20415;-74
2021/03/30 06:34:44;;;;;;;3.13;1.92;;;10.30;55.10;;;;;;4973131;28;20051;-74
2021/03/30 06:37:30;;;;;;;4.38;2.90;;;11.20;52.10;;;;;;4963582;28;20046;-74
2021/03/30 06:40:11;;;;;;;3.50;3.20;;;11.90;50.30;;;;;;4972124;28;20253;-75
2021/03/30 06:42:48;;;;;;;7.10;3.60;;;12.50;50.00;;;;;;4964995;28;20065;-74
2021/03/30 06:45:22;;;;;;;2.35;2.25;;;13.10;47.60;;;;;;4973167;28;20050;-74
2021/03/30 06:47:55;;;;;;;4.65;2.92;;;13.70;46.10;;;;;;4973298;28;20051;-75
2021/03/30 06:50:30;;;;;;;2.95;2.35;;;14.30;43.90;;;;;;4971686;28;20043;-74
2021/03/30 06:53:12;;;;;;;4.97;2.95;;;14.70;42.70;;;;;;4972958;28;20058;-74
2021/03/30 06:55:51;;;;;;;2.53;2.10;;;15.30;41.90;;;;;;4977970;28;20411;-75
2021/03/30 06:58:21;;;;;;;2.72;1.95;;;15.50;40.40;;;;;;4973383;28;20047;-75
2021/03/30 07:00:49;;;;;;;2.47;2.28;;;16.00;39.90;;;;;;4972631;28;20042;-75
2021/03/30 07:03:19;;;;;;;9.13;2.72;;;16.00;40.50;;;;;;4972886;28;20042;-75
2021/03/30 07:05:50;;;;;;;4.95;3.58;;;16.00;39.00;;;;;;4973842;28;20244;-74
2021/03/30 07:08:19;;;;;;;7.47;2.60;;;16.40;38.90;;;;;;4980471;28;20045;-75
2021/03/30 07:10:49;;;;;;;5.70;3.28;;;16.50;39.30;;;;;;4973664;28;20051;-75
2021/03/30 07:13:19;;;;;;;8.32;2.38;;;16.70;39.50;;;;;;4972235;28;20058;-75
2021/03/30 07:16:00;;;;;;;4.28;2.83;;;16.90;38.30;;;;;;4973529;28;20050;-77
2021/03/30 07:18:35;;;;;;;2.53;2.33;;;16.70;39.90;;;;;;4985874;28;20047;-75
2021/03/30 07:21:04;;;;;;;7.70;3.00;;;16.80;39.10;;;;;;4972481;28;20384;-75
2021/03/30 07:23:33;;;;;;;2.90;2.50;;;17.80;37.20;;;;;;4971449;28;20054;-75
2021/03/30 07:26:15;;;;;;;6.32;3.75;;;18.00;37.50;;;;;;4971799;28;20046;-75
2021/03/30 07:29:05;;;;;;;3.38;1.98;;;18.20;37.40;;;;;;4964433;28;20523;-75
2021/03/30 07:31:35;;;;;;;6.80;3.25;;;19.10;34.90;;;;;;4972448;28;20404;-75
2021/03/30 07:34:11;;;;;;;2.92;2.60;;;17.70;37.70;;;;;;4972207;28;20461;-76
2021/03/30 07:36:51;;;;;;;3.47;2.15;;;18.20;38.30;;;;;;4954956;28;20038;-75
2021/03/30 07:39:21;;;;;;;3.70;2.38;;;19.50;33.30;;;;;;4971222;28;20062;-75
2021/03/30 07:41:49;;;;;;;6.63;3.60;;;19.60;34.10;;;;;;4975372;28;20522;-76
2021/03/30 07:44:22;;;;;;;5.85;2.65;;;19.80;34.00;;;;;;4971172;28;20586;-76
2021/03/30 07:46:50;;;;;;;4.03;3.15;;;19.70;33.90;;;;;;4974573;28;20846;-76
2021/03/30 07:49:22;;;;;;;3.67;2.58;;;20.40;33.40;;;;;;4977269;28;20045;-77
2021/03/30 07:51:49;;;;;;;5.55;3.17;;;21.20;32.70;;;;;;4970763;28;20038;-76
2021/03/30 07:54:23;;;;;;;3.90;3.58;;;21.50;31.10;;;;;;4970821;28;20047;-75
2021/03/30 07:56:52;;;;;;;4.38;2.70;;;21.50;31.00;;;;;;4970198;28;20050;-75
2021/03/30 07:59:42;;;;;;;3.83;2.22;;;22.20;29.90;;;;;;4972437;28;20055;-75
2021/03/30 08:02:23;;;;;;;7.00;3.80;;;21.70;29.90;;;;;;4971771;28;20039;-75
2021/03/30 08:05:07;;;;;;;;;;;21.80;32.20;;;;;;4971140;28;20139;-75
2021/03/30 08:07:49;;;;;;;7.03;3.05;;;21.30;31.20;;;;;;4971540;28;20716;-74
2021/03/30 08:10:30;;;;;;;4.30;2.72;;;21.10;31.20;;;;;;4971018;28;20059;-75
2021/03/30 08:13:33;;;;;;;3.90;2.53;;;20.50;31.30;;;;;;4967378;28;20038;-75
2021/03/30 08:16:05;;;;;;;2.33;2.08;;;21.40;31.10;;;;;;4963564;28;20038;-75
2021/03/30 08:18:34;;;;;;;6.53;2.90;;;21.20;32.40;;;;;;4964503;28;20058;-75
2021/03/30 08:21:10;;;;;;;2.42;2.25;;;22.10;31.00;;;;;;4969533;28;20038;-75
2021/03/30 08:23:53;;;;;;;4.07;2.38;;;21.90;30.10;;;;;;4972535;28;20051;-75
2021/03/30 08:26:30;;;;;;;8.57;3.90;;;23.60;28.70;;;;;;4969525;28;20046;-75
2021/03/30 08:29:08;;;;;;;3.63;2.35;;;23.80;29.10;;;;;;4969108;28;20046;-75
2021/03/30 08:31:51;;;;;;;4.43;2.80;;;21.80;30.60;;;;;;4971800;28;20481;-75
2021/03/30 08:34:27;;;;;;;5.00;2.70;;;20.30;33.20;;;;;;4970847;28;20428;-75
2021/03/30 08:36:56;;;;;;;5.63;2.83;;;20.30;33.70;;;;;;4970851;28;20038;-76
2021/03/30 08:39:24;;;;;;;5.03;2.92;;;21.90;31.10;;;;;;4972185;28;20069;-75
2021/03/30 08:41:55;;;;;;;11.10;2.58;;;24.60;27.40;;;;;;4974885;28;20046;-75
2021/03/30 08:44:28;;;;;;;4.85;2.70;;;25.20;26.20;;;;;;4967745;28;20411;-74
2021/03/30 08:46:57;;;;;;;3.70;3.17;;;23.70;27.70;;;;;;4977498;28;20500;-75
2021/03/30 08:49:40;;;;;;;4.55;2.80;;;22.70;29.50;;;;;;4978964;28;20046;-75
2021/03/30 08:52:13;;;;;;;4.55;2.50;;;23.30;31.80;;;;;;4974169;28;20051;-75
2021/03/30 08:54:53;;;;;;;4.78;3.47;;;23.40;28.40;;;;;;4974885;28;20443;-74
2021/03/30 08:57:37;;;;;;;4.55;2.70;;;23.90;28.10;;;;;;4973191;28;20034;-74
2021/03/30 09:00:14;;;;;;;5.22;2.22;;;22.90;31.40;;;;;;4971526;28;20469;-74
2021/03/30 09:02:43;;;;;;;8.15;4.00;;;23.00;30.50;;;;;;4970371;28;20062;-75
2021/03/30 09:05:19;;;;;;;6.40;3.47;;;22.90;29.80;;;;;;4975003;28;20053;-75
2021/03/30 09:07:48;;;;;;;5.05;2.92;;;22.10;31.20;;;;;;4975398;28;20080;-76
2021/03/30 09:10:17;;;;;;;3.25;2.90;;;21.50;32.60;;;;;;4974174;28;20407;-78
2021/03/30 09:12:46;;;;;;;5.20;3.13;;;20.90;35.10;;;;;;4957191;28;20039;-77
2021/03/30 09:15:16;;;;;;;5.60;3.42;;;20.00;34.30;;;;;;4978280;28;20055;-78
2021/03/30 09:18:00;;;;;;;4.47;3.17;;;19.80;35.50;;;;;;4974679;28;20046;-77
2021/03/30 09:20:33;;;;;;;7.70;3.78;;;18.60;37.60;;;;;;4977566;28;20054;-77
2021/03/30 09:23:14;;;;;;;8.40;3.67;;;18.10;39.50;;;;;;4971885;28;20047;-78
2021/03/30 09:25:43;;;;;;;6.00;3.83;;;17.70;41.10;;;;;;4974541;28;20488;-78
2021/03/30 09:28:23;;;;;;;8.50;3.60;;;17.50;43.10;;;;;;4972776;28;20050;-77
2021/03/30 09:30:51;;;;;;;6.35;3.90;;;17.50;40.50;;;;;;4974958;28;20038;-77
2021/03/30 09:33:18;;;;;;;5.90;3.42;;;17.80;41.30;;;;;;4982181;28;20043;-77
2021/03/30 09:35:47;;;;;;;5.03;4.63;;;17.70;39.60;;;;;;4981648;28;20062;-77
2021/03/30 09:38:16;;;;;;;4.97;4.00;;;17.50;39.50;;;;;;4979065;28;20126;-78
2021/03/30 09:40:44;;;;;;;9.32;4.43;;;17.80;40.30;;;;;;4979234;28;20038;-77
2021/03/30 09:43:14;;;;;;;6.63;4.07;;;18.10;38.60;;;;;;4981124;28;20055;-77
2021/03/30 09:45:43;;;;;;;9.45;5.68;;;17.90;40.30;;;;;;4974252;28;20050;-77
2021/03/30 09:48:16;;;;;;;5.20;4.32;;;17.80;39.30;;;;;;4979386;28;20055;-77
2021/03/30 09:50:45;;;;;;;13.93;5.60;;;18.00;39.40;;;;;;4977314;28;20415;-74
2021/03/30 09:53:22;;;;;;;8.40;5.40;;;17.80;40.50;;;;;;4970758;28;20057;-77
2021/03/30 09:55:50;;;;;;;10.45;5.28;;;17.90;37.30;;;;;;4974665;28;20668;-77
2021/03/30 09:58:22;;;;;;;9.10;6.25;;;18.00;38.00;;;;;;4970572;28;20051;-77
2021/03/30 10:00:55;;;;;;;7.38;5.43;;;18.10;35.50;;;;;;4974143;28;20046;-76
2021/03/30 10:03:24;;;;;;;7.28;4.93;;;18.20;36.20;;;;;;4981266;28;20054;-77
2021/03/30 10:05:52;;;;;;;8.93;5.65;;;18.30;39.00;;;;;;4975029;28;20046;-77
2021/03/30 10:08:22;;;;;;;7.68;4.25;;;18.20;38.90;;;;;;4983814;28;20050;-76
2021/03/30 10:10:53;;;;;;;;;;;18.00;41.90;;;;;;4973488;28;20416;-77
2021/03/30 10:13:37;;;;;;;8.65;5.50;;;18.00;42.80;;;;;;4973188;28;19926;-76
2021/03/30 10:16:12;;;;;;;8.18;3.70;;;18.20;41.00;;;;;;4975920;28;20058;-76
2021/03/30 10:18:41;;;;;;;12.15;5.00;;;18.20;39.80;;;;;;4972997;28;20484;-76
2021/03/30 10:21:14;;;;;;;20.35;5.50;;;18.20;40.90;;;;;;4976502;28;20042;-76
2021/03/30 10:23:48;;;;;;;7.53;4.95;;;18.30;41.60;;;;;;4976317;28;20054;-76
2021/03/30 10:26:28;;;;;;;8.02;4.95;;;18.20;41.30;;;;;;4965690;28;20062;-76
2021/03/30 10:28:59;;;;;;;9.48;7.18;;;18.20;41.10;;;;;;4956816;28;20043;-76
2021/03/30 10:34:25;;;;;;;6.28;5.68;;;18.40;42.10;;;;;;4977255;28;20046;-77
2021/03/30 10:36:57;;;;;;;8.95;5.40;;;18.40;34.50;;;;;;4973939;28;20054;-77
2021/03/30 10:39:30;;;;;;;7.22;4.65;;;18.40;37.50;;;;;;4975818;28;20070;-77
2021/03/30 10:42:11;;;;;;;9.07;5.55;;;18.50;36.70;;;;;;4973178;28;20047;-76
2021/03/30 10:44:57;;;;;;;11.73;5.32;;;18.40;39.90;;;;;;4975761;28;20039;-76
2021/03/30 10:47:33;;;;;;;9.52;7.28;;;18.30;38.20;;;;;;4974375;28;20074;-76
2021/03/30 10:50:03;;;;;;;7.15;5.88;;;18.40;37.70;;;;;;4967532;28;20043;-77
2021/03/30 10:52:33;;;;;;;11.73;7.80;;;18.30;39.00;;;;;;4972161;28;20038;-76
2021/03/30 10:55:04;;;;;;;8.77;5.55;;;18.50;37.40;;;;;;4976412;28;20066;-77
2021/03/30 10:57:33;;;;;;;14.05;5.68;;;18.60;39.50;;;;;;4973711;28;20070;-76
2021/03/30 11:00:07;;;;;;;23.65;7.15;;;18.60;40.80;;;;;;4973984;28;20412;-77
2021/03/30 11:02:35;;;;;;;10.27;5.80;;;18.70;37.70;;;;;;4973836;28;20053;-77
2021/03/30 11:05:06;;;;;;;11.63;6.57;;;18.70;37.00;;;;;;4969320;28;20050;-77
2021/03/30 11:07:35;;;;;;;9.15;6.15;;;18.70;37.70;;;;;;4977603;28;20046;-77
2021/03/30 11:10:08;;;;;;;11.98;6.80;;;18.70;36.80;;;;;;4971116;28;20043;-77
2021/03/30 11:12:36;;;;;;;11.98;6.07;;;18.70;39.00;;;;;;4973251;28;20419;-77
2021/03/30 11:15:06;;;;;;;14.43;6.80;;;18.70;35.80;;;;;;4974352;28;20073;-82
2021/03/30 11:17:33;;;;;;;7.22;6.43;;;18.60;36.10;;;;;;4972213;28;20411;-77
2021/03/30 11:20:01;;;;;;;6.57;5.38;;;18.80;41.50;;;;;;4973932;28;20074;-77
2021/03/30 11:22:29;;;;;;;9.10;6.68;;;18.70;38.30;;;;;;4958201;28;20082;-76
2021/03/30 11:24:58;;;;;;;11.48;6.30;;;18.80;37.80;;;;;;4968379;28;20059;-77
2021/03/30 11:27:28;;;;;;;8.95;5.18;;;18.90;37.40;;;;;;4976956;28;20061;-76
2021/03/30 11:30:06;;;;;;;7.97;7.18;;;18.80;32.90;;;;;;4973829;28;20055;-77
2021/03/30 11:35:17;;;;;;;8.43;5.93;;;18.70;34.90;;;;;;4972977;28;20065;-77
2021/03/30 11:37:54;;;;;;;9.07;5.78;;;18.80;33.00;;;;;;4974143;28;20050;-78
2021/03/30 11:40:22;;;;;;;12.82;6.70;;;18.80;37.10;;;;;;4975042;28;20042;-77
2021/03/30 11:42:50;;;;;;;4.10;3.72;;;19.00;35.20;;;;;;4960688;28;20511;-77
2021/03/30 11:45:17;;;;;;;6.40;5.25;;;19.00;33.70;;;;;;4971611;28;20042;-77
2021/03/30 11:47:47;;;;;;;19.50;6.15;;;19.10;34.40;;;;;;4973346;28;20524;-77
2021/03/30 11:50:15;;;;;;;8.57;5.78;;;19.20;31.70;;;;;;4972285;28;20046;-77
2021/03/30 11:52:42;;;;;;;9.63;5.07;;;19.10;32.80;;;;;;4972509;28;20043;-77
2021/03/30 11:55:12;;;;;;;6.57;5.78;;;19.10;38.50;;;;;;4972672;28;20439;-79
2021/03/30 11:57:41;;;;;;;8.77;6.10;;;19.20;36.70;;;;;;4967551;28;20043;-76
2021/03/30 12:00:09;;;;;;;8.95;7.20;;;19.30;33.50;;;;;;4973333;28;20430;-77
2021/03/30 12:02:51;;;;;;;9.25;7.60;;;19.40;36.60;;;;;;4973112;28;20062;-79
2021/03/30 12:05:20;;;;;;;7.80;6.82;;;19.60;36.10;;;;;;4971629;28;20054;-78
2021/03/30 12:07:48;;;;;;;6.13;5.53;;;19.60;35.00;;;;;;4973314;28;20050;-78
2021/03/30 12:10:21;;;;;;;8.30;6.15;;;19.60;33.80;;;;;;4969351;28;20046;-85
2021/03/30 12:12:49;;;;;;;11.88;7.15;;;19.50;36.50;;;;;;4978404;28;20042;-78
2021/03/30 12:15:17;;;;;;;6.55;5.47;;;19.50;33.70;;;;;;4975201;28;20055;-89
2021/03/30 12:17:45;;;;;;;10.70;5.95;;;19.30;37.40;;;;;;4975522;28;20523;-81
2021/03/30 12:20:23;;;;;;;9.80;6.75;;;19.20;33.60;;;;;;4971876;28;20417;-82
2021/03/30 12:22:51;;;;;;;11.70;6.10;;;19.20;33.30;;;;;;4974171;28;20058;-85
2021/03/30 12:25:19;;;;;;;6.70;4.63;;;19.50;36.50;;;;;;4984140;28;20050;-85
2021/03/30 12:27:46;;;;;;;6.50;5.63;;;19.50;33.20;;;;;;4987870;28;20061;-82
2021/03/30 12:30:14;;;;;;;9.35;5.80;;;19.70;37.20;;;;;;4993156;28;20058;-81
2021/03/30 12:32:42;;;;;;;9.85;6.65;;;19.90;36.10;;;;;;4972980;28;20050;-79
2021/03/30 12:35:10;;;;;;;10.13;7.25;;;19.80;33.40;;;;;;4987361;28;20065;-78
2021/03/30 12:37:38;;;;;;;8.15;6.47;;;19.70;35.70;;;;;;4971834;28;20045;-78
2021/03/30 12:40:06;;;;;;;6.68;5.45;;;19.90;36.20;;;;;;4971365;28;20051;-78
2021/03/30 12:42:49;;;;;;;6.60;4.72;;;19.80;34.70;;;;;;4974705;28;20459;-78
2021/03/30 12:45:17;;;;;;;7.65;5.35;;;19.80;32.60;;;;;;4971004;28;20416;-76
2021/03/30 12:47:45;;;;;;;5.97;4.65;;;19.90;34.10;;;;;;4972179;28;20061;-76
2021/03/30 12:50:26;;;;;;;6.35;4.78;;;20.00;35.30;;;;;;4969408;28;20054;-76
2021/03/30 12:52:54;;;;;;;7.72;6.05;;;20.00;32.20;;;;;;4969639;28;20046;-76
2021/03/30 12:55:22;;;;;;;10.55;6.38;;;20.10;34.30;;;;;;4971594;28;20054;-77
2021/03/30 12:57:49;;;;;;;9.52;6.43;;;20.20;34.70;;;;;;4972134;28;20042;-76
2021/03/30 13:00:18;;;;;;;8.02;4.68;;;20.20;33.20;;;;;;4964371;28;20053;-77
2021/03/30 13:02:46;;;;;;;10.80;5.22;;;20.20;34.50;;;;;;4972461;28;20042;-77
2021/03/30 13:05:13;;;;;;;9.77;6.00;;;20.20;32.40;;;;;;4970100;28;20408;-76
2021/03/30 13:07:41;;;;;;;9.00;6.45;;;20.00;34.30;;;;;;4971188;28;20069;-76
2021/03/30 13:10:09;;;;;;;6.97;5.72;;;20.30;32.80;;;;;;4970806;28;20058;-77
2021/03/30 13:12:37;;;;;;;8.88;6.88;;;20.50;34.00;;;;;;4971635;28;20034;-77
2021/03/30 13:15:13;;;;;;;10.13;5.80;;;20.50;33.40;;;;;;4972224;28;20050;-77
2021/03/30 13:17:40;;;;;;;6.93;4.95;;;20.50;32.20;;;;;;4971563;28;20038;-77
2021/03/30 13:20:11;;;;;;;7.78;5.07;;;20.30;38.90;;;;;;4960314;28;20047;-80
2021/03/30 13:22:40;;;;;;;8.95;5.30;;;20.40;34.30;;;;;;4972984;28;20054;-80
2021/03/30 13:25:08;;;;;;;5.97;4.55;;;20.40;33.30;;;;;;4970446;28;20511;-80